Time;durP1;ratioP1;P1;durP2;ratioP2;P2;SDS_P1;SDS_P2;PMS_P1;PMS_P2;Temp;Humidity;BMP_temperature;BMP_pressure;BME280_temperature;BME280_humidity;BME280_pressure;Samples;Min_cycle;Max_cycle;Signal;HPM_P1;HPM_P2
2021/09/08 00:02:00;;;;;;;6.63;6.03;;;14.80;99.90;;;;;;5125022;27;20673;-44
2021/09/08 00:04:28;;;;;;;7.03;6.10;;;14.80;99.90;;;;;;5110151;27;20228;-50
2021/09/08 00:06:54;;;;;;;8.27;6.27;;;14.70;99.90;;;;;;5124355;27;20205;-44
2021/09/08 00:09:21;;;;;;;8.87;6.37;;;14.80;99.90;;;;;;5122490;27;20189;-50
2021/09/08 00:11:48;;;;;;;9.50;6.23;;;14.70;99.90;;;;;;5123527;27;20277;-46
2021/09/08 00:14:16;;;;;;;8.53;6.10;;;14.70;99.90;;;;;;5123853;27;20199;-51
2021/09/08 00:16:42;;;;;;;8.40;6.10;;;14.60;99.90;;;;;;5134371;27;20191;-47
2021/09/08 00:19:09;;;;;;;8.23;6.40;;;14.50;99.90;;;;;;5145311;27;20203;-43
2021/09/08 00:21:37;;;;;;;8.23;6.27;;;14.50;99.90;;;;;;5114305;27;20204;-46
2021/09/08 00:24:05;;;;;;;6.57;5.97;;;14.50;99.90;;;;;;5124439;27;20582;-45
2021/09/08 00:26:31;;;;;;;6.80;5.97;;;14.40;99.90;;;;;;5120335;27;20192;-47
2021/09/08 00:28:58;;;;;;;7.13;5.73;;;14.40;99.90;;;;;;5124513;27;20200;-48
2021/09/08 00:31:24;;;;;;;6.90;6.27;;;14.40;99.90;;;;;;5121394;27;20195;-50
2021/09/08 00:33:52;;;;;;;7.17;5.90;;;14.50;99.90;;;;;;5123762;27;20341;-47
2021/09/08 00:36:19;;;;;;;6.53;5.93;;;14.50;99.90;;;;;;5107078;27;20256;-47
2021/09/08 00:38:48;;;;;;;6.90;6.20;;;14.40;99.90;;;;;;5121899;27;20180;-45
2021/09/08 00:41:15;;;;;;;10.93;6.93;;;14.40;99.90;;;;;;5123355;27;20252;-46
2021/09/08 00:43:43;;;;;;;11.73;6.13;;;14.50;99.90;;;;;;5118422;27;20217;-49
2021/09/08 00:46:09;;;;;;;6.87;5.53;;;14.50;99.90;;;;;;5124526;27;20189;-46
2021/09/08 00:48:37;;;;;;;7.07;5.87;;;14.60;99.90;;;;;;5121096;27;20189;-45
2021/09/08 00:51:04;;;;;;;7.10;5.93;;;14.60;99.90;;;;;;5124091;27;20180;-45
2021/09/08 00:53:34;;;;;;;8.20;6.23;;;14.50;99.90;;;;;;5106815;27;20212;-43
2021/09/08 00:56:04;;;;;;;7.47;6.33;;;14.50;99.90;;;;;;5124185;27;20847;-44
2021/09/08 00:58:32;;;;;;;8.33;5.70;;;14.40;99.90;;;;;;5119450;27;20193;-46
2021/09/08 01:01:02;;;;;;;7.20;5.47;;;14.40;99.90;;;;;;5124119;27;20249;-45
2021/09/08 01:03:29;;;;;;;8.53;6.03;;;14.40;99.90;;;;;;5120491;27;20684;-43
2021/09/08 01:05:57;;;;;;;7.07;6.10;;;14.50;99.90;;;;;;5124195;27;20224;-47
2021/09/08 01:08:24;;;;;;;6.60;5.90;;;14.50;99.90;;;;;;5107838;27;20296;-48
2021/09/08 01:10:51;;;;;;;7.07;5.87;;;14.30;99.90;;;;;;5123320;27;20193;-45
2021/09/08 01:13:22;;;;;;;8.70;5.70;;;14.30;99.90;;;;;;5121026;27;20362;-45
2021/09/08 01:15:56;;;;;;;8.40;5.87;;;14.20;99.90;;;;;;5128973;27;20177;-43
2021/09/08 01:18:23;;;;;;;6.70;5.97;;;14.20;99.90;;;;;;5141642;27;20184;-48
2021/09/08 01:20:49;;;;;;;6.73;6.03;;;14.10;99.90;;;;;;5143619;27;20673;-44
2021/09/08 01:23:17;;;;;;;7.03;6.33;;;14.10;99.90;;;;;;5097779;27;20216;-48
2021/09/08 01:25:44;;;;;;;8.97;6.33;;;14.10;99.90;;;;;;5122259;27;20309;-47
2021/09/08 01:28:11;;;;;;;7.20;6.10;;;14.00;99.90;;;;;;5121306;27;20189;-46
2021/09/08 01:30:41;;;;;;;8.30;6.00;;;14.00;99.90;;;;;;5121382;27;20188;-49
2021/09/08 01:33:08;;;;;;;5.90;5.30;;;14.00;99.90;;;;;;5122954;27;20217;-45
2021/09/08 01:35:36;;;;;;;6.40;5.67;;;14.00;99.90;;;;;;5121229;27;20209;-46
2021/09/08 01:38:03;;;;;;;8.17;6.20;;;14.00;99.90;;;;;;5123612;27;20197;-43
2021/09/08 01:40:31;;;;;;;6.30;5.70;;;13.90;99.90;;;;;;5103385;27;20204;-50
2021/09/08 01:42:58;;;;;;;6.23;5.63;;;14.00;99.90;;;;;;5123713;27;20697;-48
2021/09/08 01:45:25;;;;;;;7.90;5.83;;;14.00;99.90;;;;;;5124320;27;20304;-43
2021/09/08 01:47:53;;;;;;;6.23;5.63;;;13.90;99.90;;;;;;5141896;27;20192;-47
2021/09/08 01:50:20;;;;;;;8.43;5.53;;;13.90;99.90;;;;;;5145102;27;20526;-48
2021/09/08 01:52:47;;;;;;;8.13;5.83;;;13.90;99.90;;;;;;5147822;27;20223;-50
2021/09/08 01:55:14;;;;;;;6.67;5.70;;;13.90;99.90;;;;;;5114124;27;20229;-46
2021/09/08 01:57:42;;;;;;;7.07;5.03;;;13.90;99.90;;;;;;5124722;27;20189;-44
2021/09/08 02:00:10;;;;;;;6.33;5.20;;;13.90;99.90;;;;;;5126152;27;20189;-46
2021/09/08 02:02:40;;;;;;;9.03;5.40;;;14.00;99.90;;;;;;5125438;27;20986;-49
2021/09/08 02:05:08;;;;;;;9.23;5.47;;;14.00;99.90;;;;;;5126792;27;20580;-50
2021/09/08 02:07:34;;;;;;;5.80;5.20;;;14.00;99.90;;;;;;5124102;27;20196;-46
2021/09/08 02:10:01;;;;;;;7.53;5.23;;;13.90;99.90;;;;;;5110828;27;20215;-43
2021/09/08 02:12:28;;;;;;;7.27;5.53;;;13.80;99.90;;;;;;5122856;27;20774;-46
2021/09/08 02:14:56;;;;;;;8.67;5.97;;;13.80;99.90;;;;;;5131450;27;20235;-47
2021/09/08 02:17:22;;;;;;;6.97;5.30;;;13.70;99.90;;;;;;5137421;27;20684;-47
2021/09/08 02:19:49;;;;;;;6.57;5.90;;;13.70;99.90;;;;;;5147393;27;20184;-49
2021/09/08 02:22:15;;;;;;;8.27;5.73;;;13.70;99.90;;;;;;5145482;27;20196;-49
2021/09/08 02:24:42;;;;;;;7.53;5.87;;;13.70;99.90;;;;;;5125370;27;20215;-44
2021/09/08 02:27:08;;;;;;;6.90;5.70;;;13.60;99.90;;;;;;5125531;27;20677;-45
2021/09/08 02:29:35;;;;;;;7.80;5.70;;;13.60;99.90;;;;;;5123653;27;20204;-46
2021/09/08 02:32:04;;;;;;;7.07;5.80;;;13.50;99.90;;;;;;5126791;27;20196;-49
2021/09/08 02:34:30;;;;;;;6.87;6.00;;;13.50;99.90;;;;;;5122766;27;20240;-47
2021/09/08 02:36:57;;;;;;;6.27;5.67;;;13.50;99.90;;;;;;5126763;27;20200;-49
2021/09/08 02:39:24;;;;;;;7.33;5.00;;;13.50;99.90;;;;;;5110016;27;20203;-43
2021/09/08 02:41:50;;;;;;;7.13;6.10;;;13.50;99.90;;;;;;5123360;27;20196;-45
2021/09/08 02:44:17;;;;;;;6.20;5.37;;;13.40;99.90;;;;;;5124728;27;20212;-48
2021/09/08 02:46:44;;;;;;;6.83;4.90;;;13.40;99.90;;;;;;5137338;27;20830;-45
2021/09/08 02:49:12;;;;;;;7.37;5.57;;;13.40;99.90;;;;;;5145765;27;20188;-47
2021/09/08 02:51:38;;;;;;;5.40;4.90;;;13.40;99.90;;;;;;5144706;27;20187;-45
2021/09/08 02:54:05;;;;;;;6.87;5.63;;;13.40;99.90;;;;;;5146806;27;20220;-45
2021/09/08 02:56:32;;;;;;;7.27;4.93;;;13.40;99.90;;;;;;5114215;27;20200;-45
2021/09/08 02:58:58;;;;;;;6.30;5.40;;;13.40;99.90;;;;;;5125669;27;20188;-48
2021/09/08 03:01:25;;;;;;;5.93;5.33;;;13.30;99.90;;;;;;5121210;27;20209;-45
2021/09/08 03:03:51;;;;;;;6.97;5.57;;;13.30;99.90;;;;;;5126053;27;20208;-46
2021/09/08 03:06:19;;;;;;;10.30;5.97;;;13.30;99.90;;;;;;5123451;27;20196;-46
2021/09/08 03:08:46;;;;;;;6.50;5.77;;;13.30;99.90;;;;;;5125307;27;20192;-46
2021/09/08 03:11:12;;;;;;;6.73;5.70;;;13.30;99.90;;;;;;5108007;27;20245;-47
2021/09/08 03:13:39;;;;;;;6.93;5.07;;;13.40;99.90;;;;;;5120407;27;20213;-48
2021/09/08 03:16:05;;;;;;;6.53;5.77;;;13.40;99.90;;;;;;5136419;27;20196;-46
2021/09/08 03:18:32;;;;;;;5.73;5.13;;;13.40;99.90;;;;;;5142829;27;20195;-43
2021/09/08 03:20:59;;;;;;;5.57;5.17;;;13.40;99.90;;;;;;5146346;27;20188;-44
2021/09/08 03:23:27;;;;;;;6.40;5.80;;;13.40;99.90;;;;;;5141896;27;20194;-45
2021/09/08 03:25:53;;;;;;;8.83;5.13;;;13.40;99.90;;;;;;5146433;27;20196;-46
2021/09/08 03:28:20;;;;;;;6.87;5.73;;;13.40;99.90;;;;;;5107534;27;20209;-48
2021/09/08 03:30:46;;;;;;;9.40;5.90;;;13.40;99.90;;;;;;5124570;27;20200;-47
2021/09/08 03:33:13;;;;;;;8.33;5.53;;;13.40;99.90;;;;;;5123756;27;20635;-45
2021/09/08 03:35:39;;;;;;;6.93;6.20;;;13.50;99.90;;;;;;5123232;27;20212;-48
2021/09/08 03:38:06;;;;;;;6.90;5.97;;;13.50;99.90;;;;;;5125000;27;20272;-48
2021/09/08 03:40:34;;;;;;;8.77;5.77;;;13.40;99.90;;;;;;5121759;27;20188;-43
2021/09/08 03:43:00;;;;;;;4.80;4.33;;;13.40;99.90;;;;;;5109305;27;20227;-45
2021/09/08 03:45:27;;;;;;;6.30;5.00;;;13.40;99.90;;;;;;5123109;27;20207;-48
2021/09/08 03:47:54;;;;;;;9.17;5.80;;;13.40;99.90;;;;;;5127583;27;20193;-45
2021/09/08 03:50:20;;;;;;;6.20;5.23;;;13.40;99.90;;;;;;5121878;27;20181;-52
2021/09/08 03:52:47;;;;;;;5.37;4.87;;;13.40;99.90;;;;;;5124791;27;20204;-45
2021/09/08 03:55:13;;;;;;;8.03;5.87;;;13.30;99.90;;;;;;5123112;27;20213;-46
2021/09/08 03:57:41;;;;;;;9.77;5.40;;;13.20;99.90;;;;;;5106270;27;20200;-48
2021/09/08 04:00:10;;;;;;;6.63;5.93;;;13.20;99.90;;;;;;5123945;27;20216;-47
2021/09/08 04:02:37;;;;;;;6.73;5.37;;;13.20;99.90;;;;;;5122528;27;20199;-46
2021/09/08 04:05:05;;;;;;;7.83;5.63;;;13.20;99.90;;;;;;5124927;27;20211;-47
2021/09/08 04:07:32;;;;;;;7.97;5.60;;;13.20;99.90;;;;;;5121056;27;20263;-46
2021/09/08 04:09:58;;;;;;;6.37;5.17;;;13.30;99.90;;;;;;5124778;27;20200;-43
2021/09/08 04:12:25;;;;;;;6.07;5.47;;;13.30;99.90;;;;;;5108001;27;20343;-45
2021/09/08 04:14:54;;;;;;;6.73;5.17;;;13.20;99.90;;;;;;5118135;27;20228;-45
2021/09/08 04:17:21;;;;;;;7.40;4.93;;;13.30;99.90;;;;;;5135000;27;20676;-44
2021/09/08 04:19:47;;;;;;;7.33;5.40;;;13.30;99.90;;;;;;5144556;27;20188;-49
2021/09/08 04:22:14;;;;;;;8.83;5.80;;;13.30;99.90;;;;;;5143527;27;20764;-44
2021/09/08 04:24:40;;;;;;;6.53;5.93;;;13.30;99.90;;;;;;5143502;27;20300;-45
2021/09/08 04:27:07;;;;;;;7.43;5.83;;;13.30;99.90;;;;;;5144761;27;20199;-48
2021/09/08 04:29:34;;;;;;;5.47;4.97;;;13.30;99.90;;;;;;5115902;27;20207;-46
2021/09/08 04:32:01;;;;;;;6.87;5.83;;;13.30;99.90;;;;;;5124328;27;20189;-43
2021/09/08 04:34:28;;;;;;;7.87;6.07;;;13.30;99.90;;;;;;5120067;27;20217;-43
2021/09/08 04:36:55;;;;;;;6.97;5.73;;;13.30;99.90;;;;;;5124353;27;20184;-47
2021/09/08 04:39:21;;;;;;;6.43;5.50;;;13.20;99.90;;;;;;5120712;27;20189;-44
2021/09/08 04:41:48;;;;;;;6.43;5.53;;;13.20;99.90;;;;;;5124217;27;20185;-52
2021/09/08 04:44:14;;;;;;;6.57;5.80;;;13.20;99.90;;;;;;5113917;27;20227;-48
2021/09/08 04:46:41;;;;;;;6.47;5.87;;;13.10;99.90;;;;;;5117014;27;20195;-48
2021/09/08 04:49:09;;;;;;;7.80;5.80;;;13.10;99.90;;;;;;5123098;27;20201;-46
2021/09/08 04:51:35;;;;;;;6.67;5.43;;;13.00;99.90;;;;;;5121651;27;20797;-48
2021/09/08 04:54:02;;;;;;;6.80;5.87;;;13.00;99.90;;;;;;5124167;27;20281;-45
2021/09/08 04:56:29;;;;;;;6.60;5.90;;;13.00;99.90;;;;;;5119841;27;20185;-45
2021/09/08 04:58:55;;;;;;;6.73;5.90;;;13.00;99.90;;;;;;5123350;27;20184;-45
2021/09/08 05:01:22;;;;;;;6.83;5.97;;;13.00;99.90;;;;;;5104497;27;20585;-46
2021/09/08 05:03:48;;;;;;;8.00;6.20;;;13.00;99.90;;;;;;5123946;27;20295;-45
2021/09/08 05:06:16;;;;;;;7.73;5.83;;;13.00;99.90;;;;;;5121968;27;20549;-49
2021/09/08 05:08:43;;;;;;;10.63;6.37;;;13.00;99.90;;;;;;5122998;27;20779;-45
2021/09/08 05:11:09;;;;;;;8.43;6.20;;;13.00;99.90;;;;;;5123105;27;20193;-49
2021/09/08 05:13:36;;;;;;;6.73;5.50;;;13.10;99.90;;;;;;5118483;27;20209;-52
2021/09/08 05:16:03;;;;;;;6.83;5.90;;;13.10;99.90;;;;;;5115682;27;20739;-44
2021/09/08 05:18:30;;;;;;;9.20;6.53;;;13.10;99.90;;;;;;5119966;27;20755;-47
2021/09/08 05:20:56;;;;;;;9.10;6.70;;;13.10;99.90;;;;;;5123696;27;20554;-48
2021/09/08 05:23:24;;;;;;;8.73;6.70;;;13.10;99.90;;;;;;5121175;27;20681;-44
2021/09/08 05:25:51;;;;;;;9.97;7.00;;;13.10;99.90;;;;;;5128028;27;20202;-45
2021/09/08 05:28:19;;;;;;;8.83;6.20;;;13.10;99.90;;;;;;5125396;27;20560;-46
2021/09/08 05:30:46;;;;;;;7.70;6.53;;;13.20;99.90;;;;;;5126913;27;20199;-43
2021/09/08 05:33:12;;;;;;;8.37;6.73;;;13.20;99.90;;;;;;5110054;27;20592;-49
2021/09/08 05:35:39;;;;;;;13.10;6.53;;;13.20;99.90;;;;;;5125364;27;20212;-47
2021/09/08 05:38:06;;;;;;;6.40;5.80;;;13.30;99.90;;;;;;5127554;27;20196;-47
2021/09/08 05:40:34;;;;;;;8.17;6.80;;;13.30;99.90;;;;;;5123623;27;20177;-48
2021/09/08 05:43:01;;;;;;;7.77;6.97;;;13.30;99.90;;;;;;5127535;27;20197;-47
2021/09/08 05:45:28;;;;;;;8.17;7.00;;;13.40;99.90;;;;;;5128076;27;20212;-43
2021/09/08 05:47:55;;;;;;;7.83;6.40;;;13.40;99.90;;;;;;5125958;27;20204;-45
2021/09/08 05:50:21;;;;;;;6.23;5.73;;;13.40;99.90;;;;;;5123739;27;20196;-50
2021/09/08 05:52:48;;;;;;;13.20;8.40;;;13.40;99.90;;;;;;5127148;27;20696;-49
2021/09/08 05:55:14;;;;;;;15.50;8.30;;;13.40;99.90;;;;;;5125330;27;20231;-50
2021/09/08 05:57:42;;;;;;;11.43;8.80;;;13.50;99.90;;;;;;5124333;27;20184;-43
2021/09/08 06:00:10;;;;;;;10.07;7.77;;;13.50;99.90;;;;;;5126210;27;20200;-47
2021/09/08 06:02:39;;;;;;;7.87;6.73;;;13.60;99.90;;;;;;5125449;27;20177;-49
2021/09/08 06:05:07;;;;;;;8.20;7.03;;;13.60;99.90;;;;;;5111411;27;20701;-52
2021/09/08 06:07:33;;;;;;;8.80;7.50;;;13.70;99.90;;;;;;5123895;27;20215;-45
2021/09/08 06:10:00;;;;;;;7.87;6.90;;;13.70;99.90;;;;;;5127053;27;20189;-50
2021/09/08 06:12:27;;;;;;;7.53;6.90;;;13.80;99.90;;;;;;5123046;27;20925;-46
2021/09/08 06:14:54;;;;;;;9.30;8.13;;;13.80;99.90;;;;;;5131667;27;20228;-50
2021/09/08 06:17:21;;;;;;;9.57;7.47;;;13.80;99.90;;;;;;5137247;27;20196;-46
2021/09/08 06:19:48;;;;;;;10.43;8.30;;;13.90;99.90;;;;;;5116619;27;20212;-48
2021/09/08 06:22:14;;;;;;;12.77;8.83;;;13.90;99.90;;;;;;5124752;27;20201;-52
2021/09/08 06:24:41;;;;;;;11.90;8.13;;;14.00;99.90;;;;;;5124980;27;20192;-49
2021/09/08 06:27:08;;;;;;;8.70;7.90;;;14.10;99.90;;;;;;5126276;27;20185;-49
2021/09/08 06:29:34;;;;;;;11.50;8.67;;;14.10;99.90;;;;;;5123346;27;20189;-46
2021/09/08 06:32:02;;;;;;;14.63;10.30;;;14.20;99.90;;;;;;5127066;27;20204;-44
2021/09/08 06:34:29;;;;;;;11.30;9.20;;;14.30;99.90;;;;;;5108625;27;20234;-47
2021/09/08 06:36:55;;;;;;;15.03;10.10;;;14.40;99.90;;;;;;5125929;27;20200;-46
2021/09/08 06:39:22;;;;;;;13.47;10.07;;;14.40;99.90;;;;;;5122486;27;20200;-47
2021/09/08 06:41:51;;;;;;;10.37;9.13;;;14.50;99.90;;;;;;5126741;27;20208;-52
2021/09/08 06:44:18;;;;;;;10.97;9.57;;;14.60;99.90;;;;;;5124693;27;20569;-47
2021/09/08 06:46:44;;;;;;;10.87;9.67;;;14.70;99.90;;;;;;5137590;27;20183;-49
2021/09/08 06:49:12;;;;;;;11.27;9.27;;;14.80;99.90;;;;;;5145664;27;20322;-46
2021/09/08 06:51:39;;;;;;;11.27;9.90;;;14.90;99.90;;;;;;5118517;27;20197;-48
2021/09/08 06:54:06;;;;;;;11.17;9.10;;;14.90;99.90;;;;;;5125608;27;20212;-48
2021/09/08 06:56:32;;;;;;;12.53;9.63;;;15.00;99.90;;;;;;5122366;27;20180;-49
2021/09/08 06:58:59;;;;;;;10.17;9.17;;;15.10;99.90;;;;;;5126128;27;20525;-51
2021/09/08 07:01:25;;;;;;;11.37;8.37;;;15.20;99.90;;;;;;5122319;27;20180;-47
2021/09/08 07:03:52;;;;;;;12.60;9.77;;;15.30;99.90;;;;;;5126250;27;20216;-48
2021/09/08 07:06:22;;;;;;;11.93;9.47;;;15.30;99.90;;;;;;5113625;27;20197;-45
2021/09/08 07:08:49;;;;;;;10.70;9.60;;;15.50;99.90;;;;;;5122244;27;20355;-45
2021/09/08 07:11:16;;;;;;;14.03;10.00;;;15.60;99.90;;;;;;5123899;27;20249;-48
2021/09/08 07:13:43;;;;;;;14.27;10.57;;;15.70;99.90;;;;;;5121103;27;20215;-46
2021/09/08 07:16:10;;;;;;;13.30;10.63;;;15.80;99.90;;;;;;5124607;27;20599;-52
2021/09/08 07:18:37;;;;;;;12.13;9.83;;;15.90;99.90;;;;;;5123274;27;20188;-45
2021/09/08 07:21:04;;;;;;;12.07;9.87;;;16.10;99.90;;;;;;5125480;27;20195;-48
2021/09/08 07:23:32;;;;;;;11.20;10.10;;;16.20;99.90;;;;;;5106636;27;20197;-49
2021/09/08 07:25:59;;;;;;;14.63;10.97;;;16.30;99.90;;;;;;5125636;27;20189;-46
2021/09/08 07:28:26;;;;;;;15.60;10.13;;;16.30;99.90;;;;;;5121627;27;20189;-47
2021/09/08 07:30:54;;;;;;;11.77;9.97;;;16.50;99.90;;;;;;5125306;27;20192;-45
2021/09/08 07:33:20;;;;;;;11.67;10.30;;;16.50;99.90;;;;;;5122412;27;20196;-52
2021/09/08 07:35:47;;;;;;;13.00;10.60;;;16.60;99.90;;;;;;5124829;27;20220;-46
2021/09/08 07:38:14;;;;;;;15.13;11.33;;;16.70;99.90;;;;;;5108001;27;20208;-50
2021/09/08 07:40:42;;;;;;;13.27;11.33;;;16.90;99.90;;;;;;5123316;27;20185;-47
2021/09/08 07:43:09;;;;;;;14.57;10.63;;;17.00;99.90;;;;;;5124878;27;20192;-49
2021/09/08 07:45:36;;;;;;;16.20;10.10;;;17.20;99.90;;;;;;5127341;27;20764;-44
2021/09/08 07:48:03;;;;;;;16.00;10.90;;;17.40;99.90;;;;;;5144595;27;20184;-49
2021/09/08 07:50:29;;;;;;;13.63;11.70;;;17.50;99.90;;;;;;5141876;27;20917;-44
2021/09/08 07:52:56;;;;;;;12.60;10.37;;;17.70;99.90;;;;;;5125947;27;20208;-48
2021/09/08 07:55:23;;;;;;;14.33;10.23;;;17.90;99.90;;;;;;5121165;27;20224;-47
2021/09/08 07:57:50;;;;;;;12.40;9.67;;;18.00;99.90;;;;;;5124405;27;20192;-45
2021/09/08 08:00:18;;;;;;;13.77;10.47;;;18.20;99.90;;;;;;5122317;27;20654;-44
2021/09/08 08:02:46;;;;;;;14.47;10.60;;;18.30;99.90;;;;;;5124055;27;20200;-48
2021/09/08 08:05:14;;;;;;;13.43;10.33;;;18.40;99.90;;;;;;5123314;27;20578;-49
2021/09/08 08:07:41;;;;;;;11.13;8.70;;;18.60;99.90;;;;;;5109860;27;23988;-47
2021/09/08 08:10:08;;;;;;;12.50;9.50;;;18.70;99.90;;;;;;5123946;27;20549;-47
2021/09/08 08:12:35;;;;;;;12.30;9.17;;;18.90;99.90;;;;;;5122009;27;20173;-47
2021/09/08 08:15:04;;;;;;;13.40;10.00;;;19.00;99.90;;;;;;5129317;27;20216;-51
2021/09/08 08:17:31;;;;;;;11.33;9.23;;;19.20;99.90;;;;;;5136090;27;20188;-48
2021/09/08 08:19:58;;;;;;;14.00;9.50;;;19.20;99.90;;;;;;5145103;27;20184;-50
2021/09/08 08:22:24;;;;;;;13.20;8.93;;;19.30;99.90;;;;;;5141414;27;20198;-50
2021/09/08 08:24:51;;;;;;;12.63;8.37;;;19.40;99.90;;;;;;5116863;27;20217;-45
2021/09/08 08:27:18;;;;;;;10.63;8.20;;;19.50;99.90;;;;;;5121891;27;20192;-47
2021/09/08 08:29:44;;;;;;;9.57;8.13;;;19.50;99.90;;;;;;5123128;27;20194;-46
2021/09/08 08:32:12;;;;;;;9.73;7.87;;;19.60;99.90;;;;;;5123240;27;20192;-47
2021/09/08 08:34:39;;;;;;;13.40;8.97;;;19.70;99.90;;;;;;5122157;27;20229;-45
2021/09/08 08:37:06;;;;;;;10.03;7.43;;;19.80;99.90;;;;;;5124762;27;20197;-49
2021/09/08 08:39:32;;;;;;;11.37;8.40;;;19.90;99.90;;;;;;5106589;27;20208;-44
2021/09/08 08:41:59;;;;;;;11.87;9.30;;;20.10;99.90;;;;;;5122872;27;20562;-49
2021/09/08 08:44:26;;;;;;;9.13;7.80;;;20.30;99.90;;;;;;5121971;27;20212;-48
2021/09/08 08:46:54;;;;;;;10.50;8.00;;;20.40;99.90;;;;;;5136510;27;20196;-46
2021/09/08 08:49:22;;;;;;;9.70;7.63;;;20.50;99.90;;;;;;5141502;27;20230;-51
2021/09/08 08:51:50;;;;;;;9.40;7.90;;;20.60;99.90;;;;;;5144961;27;20200;-48
2021/09/08 08:54:17;;;;;;;10.03;7.80;;;20.80;99.90;;;;;;5132753;27;20776;-50
2021/09/08 08:56:43;;;;;;;10.47;7.80;;;21.00;99.90;;;;;;5115558;27;20212;-47
2021/09/08 08:59:10;;;;;;;9.77;6.93;;;21.10;99.90;;;;;;5121901;27;20200;-47
2021/09/08 09:01:38;;;;;;;9.27;6.93;;;21.30;99.90;;;;;;5120385;28;20784;-47
2021/09/08 09:04:06;;;;;;;9.80;6.83;;;21.50;99.90;;;;;;5124373;27;20251;-45
2021/09/08 09:06:38;;;;;;;15.07;7.50;;;21.50;99.90;;;;;;5120750;27;20173;-49
2021/09/08 09:09:07;;;;;;;10.17;7.33;;;21.60;99.90;;;;;;5124115;27;20196;-44
2021/09/08 09:11:34;;;;;;;10.73;7.00;;;21.60;99.90;;;;;;5110772;27;20994;-49
2021/09/08 09:14:02;;;;;;;9.37;6.93;;;21.80;99.90;;;;;;5122305;27;20217;-49
2021/09/08 09:16:29;;;;;;;8.40;7.03;;;21.90;99.90;;;;;;5131728;27;20204;-44
2021/09/08 09:18:56;;;;;;;8.93;7.23;;;21.90;99.90;;;;;;5144668;27;20200;-48
2021/09/08 09:21:24;;;;;;;8.33;7.50;;;21.90;99.90;;;;;;5140679;27;20192;-47
2021/09/08 09:23:54;;;;;;;7.97;7.23;;;21.90;99.90;;;;;;5144566;27;20230;-46
2021/09/08 09:26:22;;;;;;;13.20;7.07;;;21.80;99.90;;;;;;5128454;27;20184;-48
2021/09/08 09:28:49;;;;;;;6.90;6.20;;;21.80;99.90;;;;;;5118957;27;20200;-48
2021/09/08 09:31:17;;;;;;;7.23;6.37;;;21.90;99.90;;;;;;5121565;27;20192;-49
2021/09/08 09:33:46;;;;;;;9.03;6.30;;;21.90;99.90;;;;;;5122551;27;20936;-43
2021/09/08 09:36:18;;;;;;;8.67;6.70;;;21.80;99.90;;;;;;5122084;27;20570;-44
2021/09/08 09:38:46;;;;;;;10.63;6.60;;;21.90;99.90;;;;;;5122510;27;20227;-47
2021/09/08 09:41:16;;;;;;;8.70;6.80;;;21.90;99.90;;;;;;5122213;27;20205;-45
2021/09/08 09:43:44;;;;;;;8.53;6.67;;;21.90;99.90;;;;;;5105763;27;20224;-47
2021/09/08 09:46:11;;;;;;;7.90;6.13;;;22.00;99.90;;;;;;5117644;27;20649;-46
2021/09/08 09:48:38;;;;;;;8.37;6.10;;;22.00;99.90;;;;;;5141882;27;20195;-45
2021/09/08 09:51:06;;;;;;;7.57;5.43;;;22.00;99.90;;;;;;5144450;27;20594;-44
2021/09/08 09:53:33;;;;;;;7.70;6.60;;;22.10;99.90;;;;;;5140586;27;20192;-47
2021/09/08 09:56:00;;;;;;;6.80;6.10;;;22.00;99.90;;;;;;5144609;27;20297;-47
2021/09/08 09:58:27;;;;;;;6.28;5.63;;;22.00;99.90;;;;;;5122884;27;25598;-49
2021/09/08 10:00:54;;;;;;;6.77;6.07;;;22.00;99.90;;;;;;5121124;27;20189;-48
2021/09/08 10:03:22;;;;;;;6.37;5.23;;;22.00;99.90;;;;;;5120050;27;20195;-49
2021/09/08 10:05:49;;;;;;;6.60;5.93;;;22.00;99.90;;;;;;5123334;27;20195;-44
2021/09/08 10:08:20;;;;;;;6.38;5.78;;;22.00;99.90;;;;;;5121499;27;20604;-47
2021/09/08 10:10:47;;;;;;;7.32;5.88;;;22.00;99.90;;;;;;5125740;27;20540;-46
2021/09/08 10:13:18;;;;;;;6.50;5.73;;;21.90;99.90;;;;;;5125437;27;20196;-44
2021/09/08 10:15:46;;;;;;;7.50;6.13;;;21.90;99.90;;;;;;5109444;27;20224;-47
2021/09/08 10:18:14;;;;;;;8.50;5.55;;;21.90;99.90;;;;;;5117294;27;20197;-46
2021/09/08 10:20:44;;;;;;;8.13;5.38;;;21.90;99.90;;;;;;5125227;27;20288;-45
2021/09/08 10:23:12;;;;;;;6.80;6.15;;;21.90;99.90;;;;;;5125876;27;20249;-51
2021/09/08 10:25:45;;;;;;;8.20;5.90;;;21.80;99.90;;;;;;5124624;27;20200;-43
2021/09/08 10:28:15;;;;;;;6.82;6.13;;;21.90;99.90;;;;;;5125657;27;20602;-52
2021/09/08 10:30:42;;;;;;;6.97;6.38;;;22.10;99.90;;;;;;5112022;27;20671;-44
2021/09/08 10:33:11;;;;;;;7.38;5.47;;;22.20;99.90;;;;;;5125804;27;20228;-46
2021/09/08 10:35:39;;;;;;;8.05;6.80;;;22.30;99.90;;;;;;5124067;27;20208;-50
2021/09/08 10:38:12;;;;;;;7.18;6.22;;;22.20;99.90;;;;;;5126632;27;20279;-43
2021/09/08 10:40:39;;;;;;;8.32;6.20;;;22.20;99.90;;;;;;5124562;27;20454;-47
2021/09/08 10:43:06;;;;;;;8.75;7.03;;;22.10;99.90;;;;;;5126528;27;20189;-46
2021/09/08 10:45:34;;;;;;;7.60;6.82;;;22.10;99.90;;;;;;5127599;27;20452;-45
2021/09/08 10:48:03;;;;;;;7.75;6.75;;;22.00;99.90;;;;;;5104374;27;20334;-43
2021/09/08 10:50:42;;;;;;;7.65;6.85;;;21.90;99.90;;;;;;5125713;27;20253;-46
2021/09/08 10:53:30;;;;;;;9.60;7.13;;;22.00;99.90;;;;;;5125934;27;20723;-49
2021/09/08 10:55:58;;;;;;;7.90;6.60;;;22.00;99.90;;;;;;5123283;27;20912;-45
2021/09/08 10:58:25;;;;;;;7.82;6.50;;;22.00;99.90;;;;;;5126174;27;20858;-45
2021/09/08 11:00:51;;;;;;;6.97;6.25;;;22.10;99.90;;;;;;5122296;27;20906;-47
2021/09/08 11:03:27;;;;;;;7.68;6.20;;;22.20;99.90;;;;;;5112907;27;20223;-45
2021/09/08 11:05:57;;;;;;;9.00;5.97;;;22.20;99.90;;;;;;5122115;27;21324;-46
2021/09/08 11:08:26;;;;;;;8.02;6.30;;;22.30;99.90;;;;;;5126195;27;20188;-49
2021/09/08 11:11:06;;;;;;;6.40;5.78;;;22.30;99.90;;;;;;5121982;27;20184;-42
2021/09/08 11:13:33;;;;;;;7.47;6.45;;;22.30;99.90;;;;;;5122926;27;20654;-49
2021/09/08 11:15:59;;;;;;;8.07;6.13;;;22.30;99.90;;;;;;5132425;27;20215;-46
2021/09/08 11:18:34;;;;;;;7.85;6.82;;;22.40;99.90;;;;;;5116514;27;20197;-45
2021/09/08 11:21:04;;;;;;;6.35;5.75;;;22.60;99.90;;;;;;5122586;27;20253;-47
2021/09/08 11:23:31;;;;;;;8.90;5.80;;;22.60;99.90;;;;;;5125112;27;20196;-44
2021/09/08 11:26:06;;;;;;;7.60;6.13;;;22.80;99.90;;;;;;5122870;27;20188;-47
2021/09/08 11:28:33;;;;;;;6.32;5.70;;;22.80;99.90;;;;;;5124766;27;20187;-47
2021/09/08 11:31:00;;;;;;;5.88;5.28;;;22.90;99.90;;;;;;5122931;27;20283;-46
2021/09/08 11:33:34;;;;;;;7.05;6.50;;;23.00;99.90;;;;;;5113113;27;20584;-46
2021/09/08 11:36:10;;;;;;;5.30;4.80;;;23.30;99.90;;;;;;5123332;27;20819;-45
2021/09/08 11:38:41;;;;;;;6.07;5.45;;;23.30;99.90;;;;;;5123609;27;20241;-44
2021/09/08 11:41:08;;;;;;;5.78;5.18;;;23.50;99.90;;;;;;5124628;27;20197;-47
2021/09/08 11:43:37;;;;;;;5.75;4.57;;;23.50;99.90;;;;;;5121030;27;20626;-45
2021/09/08 11:46:11;;;;;;;4.80;4.40;;;23.50;99.90;;;;;;5133892;27;20191;-50
2021/09/08 11:48:38;;;;;;;4.70;4.30;;;23.70;99.90;;;;;;5120566;27;20215;-45
2021/09/08 11:51:07;;;;;;;4.70;4.30;;;23.70;99.90;;;;;;5123249;27;20185;-45
2021/09/08 11:53:34;;;;;;;5.10;4.60;;;23.70;99.90;;;;;;5123961;27;20192;-48
2021/09/08 11:56:08;;;;;;;4.93;4.43;;;23.80;99.90;;;;;;5122403;27;20211;-45
2021/09/08 11:58:36;;;;;;;4.57;4.18;;;23.80;99.20;;;;;;5123105;27;20187;-46
2021/09/08 12:01:08;;;;;;;5.15;4.30;;;23.80;99.50;;;;;;5122742;27;20180;-49
2021/09/08 12:03:38;;;;;;;4.82;4.32;;;23.80;99.90;;;;;;5104253;27;20250;-44
2021/09/08 12:06:20;;;;;;;9.27;5.03;;;23.80;99.90;;;;;;5122488;27;20242;-48
2021/09/08 12:08:52;;;;;;;6.38;4.65;;;23.90;99.80;;;;;;5120885;27;20199;-45
2021/09/08 12:11:33;;;;;;;5.60;5.05;;;23.90;99.90;;;;;;5124974;27;20250;-46
2021/09/08 12:14:15;;;;;;;6.25;5.10;;;24.00;99.90;;;;;;5120528;27;20243;-49
2021/09/08 12:16:42;;;;;;;10.90;7.10;;;24.00;99.70;;;;;;5133556;27;20212;-45
2021/09/08 12:19:12;;;;;;;5.55;5.05;;;23.90;98.90;;;;;;5122976;27;20212;-43
2021/09/08 12:21:40;;;;;;;5.72;4.82;;;23.80;98.90;;;;;;5117636;27;20249;-48
2021/09/08 12:24:24;;;;;;;5.55;4.60;;;23.90;99.10;;;;;;5123301;27;20209;-44
2021/09/08 12:26:51;;;;;;;4.95;4.55;;;24.00;98.50;;;;;;5120431;27;20181;-44
2021/09/08 12:29:18;;;;;;;7.07;5.32;;;24.10;98.10;;;;;;5124494;27;20196;-47
2021/09/08 12:31:49;;;;;;;4.65;4.20;;;24.10;98.20;;;;;;5121178;27;20187;-51
2021/09/08 12:34:16;;;;;;;7.63;4.97;;;24.10;98.00;;;;;;5106853;27;20287;-47
2021/09/08 12:36:45;;;;;;;6.00;4.72;;;24.10;99.10;;;;;;5117296;27;20200;-51
2021/09/08 12:39:14;;;;;;;5.95;4.82;;;24.20;99.40;;;;;;5124297;27;20188;-47
2021/09/08 12:41:53;;;;;;;6.03;4.60;;;24.20;99.50;;;;;;5121301;27;20188;-48
2021/09/08 12:44:27;;;;;;;5.20;4.78;;;24.30;98.50;;;;;;5125826;27;20298;-48
2021/09/08 12:46:53;;;;;;;5.30;4.68;;;24.40;99.60;;;;;;5132524;27;21014;-49